Douglas, AZ (85607)

7:10 PM MST on August 29, 2014 (GMT -0700)
Bisbee Douglas International | Change Station
CLOSE
Current Station
Airport
Location: Douglas Bisbee,
Elevation: 4104 ft
Nearby Weather Stations

Elev 4104 ft 31.47 °N, 109.60 °W | Updated 14 minutes ago

Clear
Clear
78 °F
Feels Like 78 °F
N
7
Wind Variable Wind from NW

Today
High -- | Low -- °F
--% Chance of Precip.
Yesterday
High -- | Low -- °F
Precip. -- in
5:52 AM 6:45 PM
Waxing Crescent, 18% visible
Pressure 29.81 in
Visibility 10.0 miles
Clouds Clear
Dew Point 52 °F
Humidity 40%
Rainfall 0.00 in
Snow Depth Not available.
UV 0 out of 12
Pollen 6.40 out of 12
Air Quality Not available.
Flu Activity Not available.
METAR KDUG 300156Z AUTO 31006KT 10SM CLR 26/11 A2999 RMK AO2 SLP093 T02560111

More Conditions Fewer Conditions

Pressure 29.81 in
Visibility 10.0 miles
Clouds Clear
Dew Point 52 °F
Humidity 40%
Rainfall 0.00 in
Snow Depth Not available.
UV 0 out of 12
Pollen 6.40 out of 12
Air Quality Not available.
Flu Activity Not available.
METAR KDUG 300156Z AUTO 31006KT 10SM CLR 26/11 A2999 RMK AO2 SLP093 T02560111

More Conditions Fewer Conditions

10-Day Weather Forecast

Almanac

Astronomy

Aug. 29, 2014 Rise Set
Actual Time 5:52 AM MST 6:45 PM MST
Civil Twilight 5:27 AM MST 7:10 PM MST
Nautical Twilight 4:58 AM MST 7:39 PM MST
Astronomical Twilight 4:27 AM MST 8:09 PM MST
Moon 9:27 AM MST (8/29) 9:03 PM MST (8/29)
Length of Visible Light 13h 42m
Length of Day
12h 52m
Tomorrow will be 1m 48s shorter.
Waxing Crescent, 18% of the Moon is Illuminated
Today
Waxing Crescent
Sep 2
First Quarter
Sep 8
Full
Sep 15
Last Quarter
Sep 24
New

Today's Extremes

State Highs State Lows

Community

WunderPhotos

Upload Photos

1,748,405 photos uploaded!

Nearby

Snow Depth

Station Depth Elevation
Beaver Head 24 in 7990 ft
Workman Creek 1 in 6900 ft
Snowslide Canyon 0 in 9730 ft

Earthquake Activity

City Distance Mag. Time & Date
No recent earthquake activity has been reported nearby.
Minimum magnitude displayed is 2.5.

Coastal Water Temperatures

Place Temperature
No Stations Reporting

Nearby Weather Stations